Time;durP1;ratioP1;P1;durP2;ratioP2;P2;SDS_P1;SDS_P2;PMS_P1;PMS_P2;Temp;Humidity;BMP_temperature;BMP_pressure;BME280_temperature;BME280_humidity;BME280_pressure;Samples;Min_cycle;Max_cycle;Signal;HPM_P1;HPM_P2
2022/05/11 00:00:43;;;;;;;;;;;;;;;20.03;45.72;101335.44;6158499;23;19909;-78
2022/05/11 00:03:09;;;;;;;;;;;;;;;20.02;45.80;101331.09;6132528;23;19983;-78
2022/05/11 00:05:34;;;;;;;;;;;;;;;20.03;45.80;101335.44;6158405;23;19921;-78
2022/05/11 00:07:59;;;;;;;;;;;;;;;20.03;45.99;101335.44;6107694;23;19924;-78
2022/05/11 00:10:25;;;;;;;;;;;;;;;20.02;45.94;101325.88;6132167;23;19912;-78
2022/05/11 00:12:50;;;;;;;;;;;;;;;20.02;45.99;101328.50;6158595;23;19909;-76
2022/05/11 00:15:17;;;;;;;;;;;;;;;20.01;45.93;101326.75;6131789;23;19908;-76
2022/05/11 00:17:43;;;;;;;;;;;;;;;20.01;45.97;101325.03;6132009;23;19908;-77
2022/05/11 00:20:09;;;;;;;;;;;;;;;20.01;45.98;101317.19;6132395;23;19999;-76
2022/05/11 00:22:35;;;;;;;;;;;;;;;20.00;46.10;101307.59;6158332;23;19913;-78
2022/05/11 00:25:01;;;;;;;;;;;;;;;20.01;46.10;101317.19;6131950;23;19909;-78
2022/05/11 00:27:26;;;;;;;;;;;;;;;20.00;46.17;101315.44;6134215;23;19912;-78
2022/05/11 00:29:51;;;;;;;;;;;;;;;20.00;45.93;101312.84;6132309;23;19920;-78
2022/05/11 00:32:17;;;;;;;;;;;;;;;20.01;46.15;101313.69;6158423;23;19915;-78
2022/05/11 00:34:42;;;;;;;;;;;;;;;20.00;46.16;101310.22;6156502;23;19909;-78
2022/05/11 00:37:07;;;;;;;;;;;;;;;20.00;46.15;101305.00;6132209;23;19963;-78
2022/05/11 00:39:33;;;;;;;;;;;;;;;20.00;46.32;101306.75;6132098;23;19913;-78
2022/05/11 00:42:00;;;;;;;;;;;;;;;20.00;46.28;101310.22;6107500;23;19920;-78
2022/05/11 00:44:25;;;;;;;;;;;;;;;20.00;46.43;101304.13;6131632;23;19909;-78
2022/05/11 00:46:59;;;;;;;;;;;;;;;19.99;46.44;101305.91;6131943;23;19924;-78
2022/05/11 00:49:34;;;;;;;;;;;;;;;19.98;46.43;101300.69;6157916;23;19968;-78
2022/05/11 00:52:18;;;;;;;;;;;;;;;19.98;46.36;101295.44;6131825;23;19909;-78
2022/05/11 00:54:49;;;;;;;;;;;;;;;19.97;46.31;101291.97;6158011;23;19983;-78
2022/05/11 00:57:20;;;;;;;;;;;;;;;19.97;46.48;101293.72;6157674;23;20310;-78
2022/05/11 00:59:48;;;;;;;;;;;;;;;19.97;46.58;101284.16;6131697;23;19916;-78
2022/05/11 01:02:13;;;;;;;;;;;;;;;19.97;46.42;101281.53;6156265;23;19944;-78
2022/05/11 01:04:40;;;;;;;;;;;;;;;19.97;46.62;101278.91;6131692;23;20237;-78
2022/05/11 01:07:07;;;;;;;;;;;;;;;19.96;46.59;101274.56;6160419;23;19916;-78
2022/05/11 01:09:32;;;;;;;;;;;;;;;19.96;46.52;101278.94;6133820;23;19955;-77
2022/05/11 01:11:58;;;;;;;;;;;;;;;19.95;46.60;101267.63;6157945;23;19948;-78
2022/05/11 01:14:26;;;;;;;;;;;;;;;19.96;46.60;101271.09;6131566;23;19962;-78
2022/05/11 01:16:51;;;;;;;;;;;;;;;19.95;46.52;101275.47;6157723;23;20027;-78
2022/05/11 01:19:38;;;;;;;;;;;;;;;19.94;46.57;101277.19;6107277;23;19932;-78
2022/05/11 01:22:03;;;;;;;;;;;;;;;19.94;46.55;101260.66;6131553;23;19963;-78
2022/05/11 01:24:40;;;;;;;;;;;;;;;19.96;46.54;101258.03;6131435;23;19917;-78
2022/05/11 01:27:21;;;;;;;;;;;;;;;19.96;46.73;101253.66;6157555;23;19909;-77
2022/05/11 01:29:46;;;;;;;;;;;;;;;19.95;46.53;101251.94;6157451;23;19931;-78
2022/05/11 01:32:12;;;;;;;;;;;;;;;19.94;46.58;101260.66;6106910;23;20289;-78
2022/05/11 01:34:37;;;;;;;;;;;;;;;19.94;46.52;101258.03;6106951;23;19912;-78
2022/05/11 01:37:03;;;;;;;;;;;;;;;19.95;46.57;101270.25;6130969;23;19923;-78
2022/05/11 01:39:28;;;;;;;;;;;;;;;19.94;46.68;101255.44;6106720;23;19963;-78
2022/05/11 01:41:54;;;;;;;;;;;;;;;19.96;46.66;101260.66;6157368;23;19916;-78
2022/05/11 01:44:20;;;;;;;;;;;;;;;19.94;46.69;101266.72;6131113;23;19916;-78
2022/05/11 01:46:48;;;;;;;;;;;;;;;19.93;46.76;101261.56;6157241;23;19912;-78
2022/05/11 01:49:13;;;;;;;;;;;;;;;19.92;46.73;101257.19;6157414;23;19915;-78
2022/05/11 01:51:38;;;;;;;;;;;;;;;19.93;46.81;101258.94;6132732;23;19913;-78
2022/05/11 01:54:04;;;;;;;;;;;;;;;19.92;46.78;101258.09;6157538;23;19915;-78
2022/05/11 01:56:29;;;;;;;;;;;;;;;19.93;46.81;101254.56;6157682;23;19960;-78
2022/05/11 01:58:55;;;;;;;;;;;;;;;19.93;46.85;101246.75;6157265;23;19947;-78
2022/05/11 02:01:23;;;;;;;;;;;;;;;19.94;46.72;101247.59;6157057;23;19920;-78
2022/05/11 02:03:48;;;;;;;;;;;;;;;19.94;46.83;101244.97;6157294;23;19995;-79
2022/05/11 02:08:58;;;;;;;;;;;;;;;19.92;46.84;101246.75;6157731;23;20004;-78
2022/05/11 02:11:24;;;;;;;;;;;;;;;19.93;46.88;101243.28;6157466;23;19909;-78
2022/05/11 02:13:49;;;;;;;;;;;;;;;19.91;46.95;101248.50;6157264;23;19919;-78
2022/05/11 02:16:15;;;;;;;;;;;;;;;19.93;46.96;101248.50;6157140;23;20393;-79
2022/05/11 02:18:41;;;;;;;;;;;;;;;19.92;46.83;101242.41;6131037;23;19991;-78
2022/05/11 02:21:07;;;;;;;;;;;;;;;19.92;46.93;101234.56;6157095;23;19915;-78
2022/05/11 02:23:32;;;;;;;;;;;;;;;19.91;46.92;101242.44;6131341;23;19917;-78
2022/05/11 02:25:58;;;;;;;;;;;;;;;19.90;46.91;101231.13;6157229;23;20376;-78
2022/05/11 02:28:23;;;;;;;;;;;;;;;19.91;46.90;101221.53;6156913;23;19987;-78
2022/05/11 02:30:49;;;;;;;;;;;;;;;19.90;47.06;101222.41;6157002;23;19924;-79
2022/05/11 02:33:15;;;;;;;;;;;;;;;19.90;47.00;101214.56;6132463;23;19909;-78
2022/05/11 02:35:41;;;;;;;;;;;;;;;19.91;46.95;101217.16;6156965;23;19936;-78
2022/05/11 02:38:08;;;;;;;;;;;;;;;19.91;46.97;101219.78;6130661;23;19917;-79
2022/05/11 02:40:37;;;;;;;;;;;;;;;19.91;47.00;101224.13;6157245;23;20234;-78
2022/05/11 02:43:02;;;;;;;;;;;;;;;19.90;47.00;101222.41;6130988;23;19912;-78
2022/05/11 02:45:28;;;;;;;;;;;;;;;19.88;47.00;101219.81;6156769;23;19924;-79
2022/05/11 02:47:54;;;;;;;;;;;;;;;19.90;47.17;101220.66;6130676;23;19908;-78
2022/05/11 02:50:24;;;;;;;;;;;;;;;19.91;47.01;101214.56;6156608;23;20249;-79
2022/05/11 02:52:50;;;;;;;;;;;;;;;19.91;47.05;101217.16;6156802;23;19909;-78
2022/05/11 02:55:15;;;;;;;;;;;;;;;19.90;47.05;101219.78;6130802;23;19935;-78
2022/05/11 02:57:40;;;;;;;;;;;;;;;19.90;46.99;101222.41;6130643;23;19909;-78
2022/05/11 03:00:07;;;;;;;;;;;;;;;19.90;47.06;101222.41;6130680;23;19920;-78
2022/05/11 03:02:33;;;;;;;;;;;;;;;19.89;46.94;101207.63;6156583;23;19916;-78
2022/05/11 03:04:58;;;;;;;;;;;;;;;19.88;47.08;101214.59;6156777;23;19917;-78
2022/05/11 03:07:24;;;;;;;;;;;;;;;19.89;47.01;101215.47;6106148;23;19967;-78
2022/05/11 03:09:51;;;;;;;;;;;;;;;19.88;47.06;101216.31;6156638;23;19992;-78
2022/05/11 03:12:16;;;;;;;;;;;;;;;19.87;47.09;101209.38;6132458;23;20285;-78
2022/05/11 03:14:42;;;;;;;;;;;;;;;19.87;46.94;101209.38;6160182;23;19955;-77
2022/05/11 03:17:08;;;;;;;;;;;;;;;19.86;47.03;101200.69;6108771;23;19919;-78
2022/05/11 03:19:33;;;;;;;;;;;;;;;19.85;47.06;101195.50;6158729;23;19987;-78
2022/05/11 03:21:58;;;;;;;;;;;;;;;19.86;47.01;101192.88;6132671;23;19924;-78
2022/05/11 03:24:24;;;;;;;;;;;;;;;19.86;47.04;101192.88;6158964;23;19917;-78
2022/05/11 03:26:49;;;;;;;;;;;;;;;19.86;46.66;101194.59;6108451;23;19913;-78
2022/05/11 03:29:14;;;;;;;;;;;;;;;19.84;46.97;101194.63;6132469;23;19913;-78
2022/05/11 03:31:40;;;;;;;;;;;;;;;19.84;46.71;101196.38;6132248;23;19909;-78
2022/05/11 03:36:50;;;;;;;;;;;;;;;19.86;46.96;101192.88;6158635;23;20023;-78
2022/05/11 03:39:15;;;;;;;;;;;;;;;19.84;46.82;101185.94;6132572;23;20269;-79
2022/05/11 03:41:45;;;;;;;;;;;;;;;19.83;46.82;101185.06;6158421;23;20234;-76
2022/05/11 03:44:10;;;;;;;;;;;;;;;19.85;46.81;101182.44;6158574;23;19936;-76
2022/05/11 03:46:36;;;;;;;;;;;;;;;19.83;46.81;101177.22;6132812;23;19920;-75
2022/05/11 03:49:01;;;;;;;;;;;;;;;19.85;46.58;101185.03;6132520;23;19913;-76
2022/05/11 03:51:26;;;;;;;;;;;;;;;19.84;46.95;101176.34;6158470;23;19909;-76
2022/05/11 03:53:51;;;;;;;;;;;;;;;19.83;46.79;101171.13;6132649;23;19935;-76
2022/05/11 03:56:18;;;;;;;;;;;;;;;19.83;46.80;101172.00;6159952;23;19954;-76
2022/05/11 03:58:43;;;;;;;;;;;;;;;19.84;46.79;101171.13;6159188;23;19992;-76
2022/05/11 04:01:08;;;;;;;;;;;;;;;19.83;46.84;101169.38;6158430;23;20298;-77
2022/05/11 04:03:35;;;;;;;;;;;;;;;19.84;46.72;101167.66;6132025;23;21898;-76
2022/05/11 04:06:01;;;;;;;;;;;;;;;19.84;46.81;101163.28;6132508;23;19912;-76
2022/05/11 04:08:26;;;;;;;;;;;;;;;19.83;46.79;101166.78;6158298;23;19912;-76
2022/05/11 04:10:52;;;;;;;;;;;;;;;19.83;46.75;101168.53;6158613;23;19935;-76
2022/05/11 04:13:17;;;;;;;;;;;;;;;19.83;46.68;101165.91;6158278;23;20344;-76
2022/05/11 04:15:42;;;;;;;;;;;;;;;19.83;46.75;101161.53;6132134;23;19988;-76
2022/05/11 04:18:07;;;;;;;;;;;;;;;19.82;46.66;101154.59;6132268;23;19959;-76
2022/05/11 04:20:33;;;;;;;;;;;;;;;19.84;46.77;101159.81;6132208;23;20313;-76
2022/05/11 04:22:58;;;;;;;;;;;;;;;19.83;46.75;101165.91;6158048;23;19983;-76
2022/05/11 04:25:24;;;;;;;;;;;;;;;19.83;46.71;101158.94;6107518;23;19999;-76
2022/05/11 04:27:49;;;;;;;;;;;;;;;19.82;46.68;101159.84;6108018;23;20360;-77
2022/05/11 04:30:16;;;;;;;;;;;;;;;19.82;46.67;101152.00;6158244;23;19913;-78
2022/05/11 04:32:41;;;;;;;;;;;;;;;19.83;46.77;101150.25;6158392;23;19915;-79
2022/05/11 04:35:08;;;;;;;;;;;;;;;19.82;46.69;101154.59;6158113;23;19987;-80
2022/05/11 04:37:33;;;;;;;;;;;;;;;19.83;46.62;101153.72;6158190;23;20319;-77
2022/05/11 04:39:58;;;;;;;;;;;;;;;19.84;46.60;101155.47;6159725;23;19916;-78
2022/05/11 04:42:24;;;;;;;;;;;;;;;19.82;46.68;101158.97;6158400;23;19975;-84
2022/05/11 04:44:49;;;;;;;;;;;;;;;19.76;46.43;101152.06;6158238;23;20046;-83
2022/05/11 04:47:15;;;;;;;;;;;;;;;19.74;46.45;101153.84;6132370;23;19932;-83
2022/05/11 04:49:41;;;;;;;;;;;;;;;19.72;46.36;101151.25;6158094;23;19909;-82
2022/05/11 04:52:10;;;;;;;;;;;;;;;19.72;46.42;101150.38;6131867;23;20314;-84
2022/05/11 04:54:49;;;;;;;;;;;;;;;19.72;46.46;101160.84;6132388;23;19916;-79
2022/05/11 04:57:14;;;;;;;;;;;;;;;19.84;46.21;101159.81;6131727;23;19936;-81
2022/05/11 04:59:40;;;;;;;;;;;;;;;19.89;46.27;101158.00;6158315;23;19912;-78
2022/05/11 05:02:06;;;;;;;;;;;;;;;19.94;46.24;101153.56;6132525;23;20396;-75
2022/05/11 05:04:32;;;;;;;;;;;;;;;19.99;46.25;101161.31;6132706;23;19920;-78
2022/05/11 05:06:57;;;;;;;;;;;;;;;20.03;46.40;101163.00;6133252;23;19920;-77
2022/05/11 05:09:23;;;;;;;;;;;;;;;20.10;46.66;101159.44;6131971;23;19917;-77
2022/05/11 05:11:49;;;;;;;;;;;;;;;20.13;46.52;101159.38;6132032;23;19909;-77
2022/05/11 05:14:14;;;;;;;;;;;;;;;20.14;46.60;101161.09;6132124;23;19991;-77
2022/05/11 05:16:40;;;;;;;;;;;;;;;20.13;46.60;101159.38;6131601;23;20308;-76
2022/05/11 05:19:05;;;;;;;;;;;;;;;20.14;46.49;101155.88;6131732;23;19916;-76
2022/05/11 05:21:31;;;;;;;;;;;;;;;20.15;46.56;101157.63;6159180;23;19957;-76
2022/05/11 05:23:56;;;;;;;;;;;;;;;20.16;46.63;101158.47;6131451;23;20627;-76
2022/05/11 05:26:22;;;;;;;;;;;;;;;20.16;46.49;101164.56;6131368;23;19916;-76
2022/05/11 05:31:31;;;;;;;;;;;;;;;20.16;46.43;101167.16;6157649;23;19962;-76
2022/05/11 05:34:00;;;;;;;;;;;;;;;20.19;46.61;101171.50;6157414;23;19960;-76
2022/05/11 05:36:29;;;;;;;;;;;;;;;20.20;46.55;101170.63;6131074;23;19909;-76
2022/05/11 05:38:55;;;;;;;;;;;;;;;20.20;46.39;101162.78;6157538;23;19913;-76
2022/05/11 05:41:20;;;;;;;;;;;;;;;20.21;46.50;101167.97;6131217;23;19915;-76
2022/05/11 05:43:45;;;;;;;;;;;;;;;20.23;46.34;101160.97;6132317;23;19948;-76
2022/05/11 05:46:11;;;;;;;;;;;;;;;20.24;46.48;101160.09;6157768;23;20015;-76
2022/05/11 05:48:36;;;;;;;;;;;;;;;20.26;46.25;101155.69;6131347;23;19908;-76
2022/05/11 05:51:09;;;;;;;;;;;;;;;20.26;46.45;101162.69;6157152;23;19920;-76
2022/05/11 05:53:34;;;;;;;;;;;;;;;20.25;46.31;101159.22;6131038;23;19919;-76
2022/05/11 05:56:00;;;;;;;;;;;;;;;20.26;46.33;101160.94;6157346;23;19908;-76
2022/05/11 05:58:25;;;;;;;;;;;;;;;20.25;46.21;101161.81;6157646;23;19908;-76
2022/05/11 06:00:50;;;;;;;;;;;;;;;20.25;46.46;101164.44;6157380;23;19935;-76
2022/05/11 06:03:24;;;;;;;;;;;;;;;20.27;46.44;101161.78;6158137;23;19969;-76
2022/05/11 06:05:50;;;;;;;;;;;;;;;20.26;46.20;101168.75;6131493;23;19916;-76
2022/05/11 06:08:16;;;;;;;;;;;;;;;20.26;46.37;101171.38;6156915;23;19963;-76
2022/05/11 06:10:42;;;;;;;;;;;;;;;20.26;46.43;101170.53;6157579;23;19991;-76
2022/05/11 06:13:07;;;;;;;;;;;;;;;20.26;46.26;101173.13;6130882;23;19979;-76
2022/05/11 06:15:33;;;;;;;;;;;;;;;20.26;46.41;101175.75;6157260;23;20318;-76
2022/05/11 06:17:58;;;;;;;;;;;;;;;20.27;46.21;101178.34;6131159;23;19920;-76
2022/05/11 06:20:23;;;;;;;;;;;;;;;20.27;46.35;101174.84;6157188;23;19984;-76
2022/05/11 06:22:50;;;;;;;;;;;;;;;20.27;46.29;101175.72;6156926;23;20348;-76
2022/05/11 06:25:18;;;;;;;;;;;;;;;20.27;46.07;101180.06;6157329;23;20326;-76
2022/05/11 06:27:43;;;;;;;;;;;;;;;20.27;46.24;101180.97;6131520;23;19920;-76
2022/05/11 06:30:09;;;;;;;;;;;;;;;20.29;46.11;101173.06;6158189;23;19916;-75
2022/05/11 06:32:34;;;;;;;;;;;;;;;20.34;45.82;101173.88;6131499;23;19916;-75
2022/05/11 06:34:59;;;;;;;;;;;;;;;20.40;46.09;101181.59;6157624;23;19913;-76
2022/05/11 06:37:25;;;;;;;;;;;;;;;20.42;45.87;101172.00;6106447;23;20337;-76
2022/05/11 06:39:51;;;;;;;;;;;;;;;20.41;45.84;101179.88;6157206;23;20051;-76
2022/05/11 06:42:16;;;;;;;;;;;;;;;20.38;45.86;101180.75;6157174;23;19914;-76
2022/05/11 06:44:42;;;;;;;;;;;;;;;20.36;45.72;101174.72;6157047;23;19937;-76
2022/05/11 06:47:07;;;;;;;;;;;;;;;20.35;45.79;101181.69;6158778;23;19964;-76
2022/05/11 06:49:33;;;;;;;;;;;;;;;20.35;45.77;101178.22;6131080;23;19908;-76
2022/05/11 06:51:59;;;;;;;;;;;;;;;20.72;45.21;101180.25;6131037;23;19919;-76
2022/05/11 06:59:55;;;;;;;;;;;;;;;21.03;44.91;101174.47;6157188;23;19955;-76
2022/05/11 07:02:21;;;;;;;;;;;;;;;20.90;45.26;101164.22;6130690;23;19917;-76
2022/05/11 07:04:48;;;;;;;;;;;;;;;20.77;45.45;101167.94;6156820;23;19916;-75
2022/05/11 07:07:13;;;;;;;;;;;;;;;20.69;45.36;101157.63;6130556;23;19919;-76
2022/05/11 07:09:39;;;;;;;;;;;;;;;20.65;45.54;101155.09;6106416;23;19999;-76
2022/05/11 07:12:17;;;;;;;;;;;;;;;20.62;45.64;101160.38;6130870;23;19913;-76
2022/05/11 07:14:43;;;;;;;;;;;;;;;20.63;45.40;101156.88;6157039;23;19916;-76
2022/05/11 07:17:08;;;;;;;;;;;;;;;20.68;45.42;101155.91;6156701;23;19915;-76
2022/05/11 07:19:34;;;;;;;;;;;;;;;20.71;45.41;101149.78;6156710;23;19944;-76
2022/05/11 07:22:02;;;;;;;;;;;;;;;20.66;45.40;101152.44;6156975;23;20240;-76
2022/05/11 07:24:27;;;;;;;;;;;;;;;20.64;45.55;101150.75;6130752;23;20326;-76
2022/05/11 07:26:54;;;;;;;;;;;;;;;20.62;45.49;101147.31;6156646;23;19915;-76
2022/05/11 07:29:19;;;;;;;;;;;;;;;20.61;45.50;101159.53;6158190;23;19917;-76
2022/05/11 07:31:46;;;;;;;;;;;;;;;20.60;45.47;101149.97;6156671;23;20388;-76
2022/05/11 07:34:11;;;;;;;;;;;;;;;20.62;45.52;101158.66;6156836;23;19936;-76
2022/05/11 07:36:37;;;;;;;;;;;;;;;20.78;45.20;101167.09;6156424;23;19912;-76
2022/05/11 07:39:02;;;;;;;;;;;;;;;20.87;45.10;101156.44;6130604;23;20047;-76
2022/05/11 07:41:27;;;;;;;;;;;;;;;20.96;45.02;101148.41;6156869;23;20329;-76
2022/05/11 07:43:53;;;;;;;;;;;;;;;21.10;45.01;101152.53;6106144;23;19917;-76
2022/05/11 07:46:18;;;;;;;;;;;;;;;21.15;44.99;101142.84;6156848;23;19979;-76
2022/05/11 07:48:43;;;;;;;;;;;;;;;21.18;44.74;101145.41;6130515;23;19920;-76
2022/05/11 07:51:08;;;;;;;;;;;;;;;21.12;44.71;101159.47;6105962;23;19920;-76
2022/05/11 07:53:34;;;;;;;;;;;;;;;21.12;44.92;101151.63;6106467;23;19917;-76
2022/05/11 08:01:27;;;;;;;;;;;;;;;20.97;45.03;101159.78;6136301;23;19919;-76
2022/05/11 08:03:52;;;;;;;;;;;;;;;21.02;45.00;101157.91;6132283;23;19916;-76
2022/05/11 08:06:18;;;;;;;;;;;;;;;20.98;44.89;101158.88;6132220;23;19913;-76
2022/05/11 08:08:44;;;;;;;;;;;;;;;20.98;44.94;101161.47;6132584;23;20274;-76
2022/05/11 08:11:09;;;;;;;;;;;;;;;20.98;45.02;101158.00;6160304;23;19915;-76
2022/05/11 08:13:34;;;;;;;;;;;;;;;21.05;45.00;101163.09;6132484;23;19913;-76
2022/05/11 08:16:00;;;;;;;;;;;;;;;21.13;45.05;101160.34;6132253;23;19908;-76
2022/05/11 08:18:26;;;;;;;;;;;;;;;21.08;44.82;101156.94;6158744;23;20218;-76
2022/05/11 08:20:51;;;;;;;;;;;;;;;21.08;44.67;101160.44;6131977;23;20246;-76
2022/05/11 08:23:16;;;;;;;;;;;;;;;21.03;44.92;101162.25;6158192;23;19915;-76
2022/05/11 08:25:42;;;;;;;;;;;;;;;21.00;45.05;101164.94;6158126;23;19916;-77
2022/05/11 08:28:09;;;;;;;;;;;;;;;20.97;45.00;101165.00;6158020;23;19920;-76
2022/05/11 08:33:19;;;;;;;;;;;;;;;21.00;44.86;101167.53;6158554;23;19920;-76
2022/05/11 08:35:44;;;;;;;;;;;;;;;21.06;44.83;101156.97;6132305;23;19913;-76
2022/05/11 08:38:11;;;;;;;;;;;;;;;21.09;44.70;101161.28;6158578;23;19917;-76
2022/05/11 08:40:39;;;;;;;;;;;;;;;21.08;44.75;101167.41;6157900;23;19909;-76
2022/05/11 08:43:09;;;;;;;;;;;;;;;21.07;44.69;101171.75;6158314;23;19936;-76
2022/05/11 08:45:54;;;;;;;;;;;;;;;21.06;44.62;101164.81;6158022;23;19996;-76
2022/05/11 08:48:39;;;;;;;;;;;;;;;21.05;44.93;101157.00;6112503;23;19908;-77
2022/05/11 08:51:07;;;;;;;;;;;;;;;21.05;44.84;101165.69;6157701;23;19945;-76
2022/05/11 08:53:40;;;;;;;;;;;;;;;21.03;44.81;101167.47;6158229;23;19909;-76
2022/05/11 08:56:09;;;;;;;;;;;;;;;20.98;44.99;101171.94;6158278;23;20023;-77
2022/05/11 08:58:42;;;;;;;;;;;;;;;20.97;45.02;101170.25;6158202;23;19919;-76
2022/05/11 09:01:11;;;;;;;;;;;;;;;20.92;45.06;101183.38;6131686;23;19909;-76
2022/05/11 09:03:41;;;;;;;;;;;;;;;20.90;45.29;101173.84;6157809;23;19917;-76
2022/05/11 09:06:19;;;;;;;;;;;;;;;20.89;45.28;101183.44;6131633;23;19909;-76
2022/05/11 09:08:44;;;;;;;;;;;;;;;20.89;45.21;101172.97;6157780;23;19948;-76
2022/05/11 09:11:13;;;;;;;;;;;;;;;20.89;45.43;101183.44;6157944;23;20317;-76
2022/05/11 09:13:39;;;;;;;;;;;;;;;20.90;45.36;101186.91;6157678;23;19915;-77
2022/05/11 09:16:06;;;;;;;;;;;;;;;20.90;45.42;101184.28;6157858;23;19909;-76
2022/05/11 09:18:31;;;;;;;;;;;;;;;20.90;45.44;101184.28;6131859;23;19943;-76
2022/05/11 09:20:57;;;;;;;;;;;;;;;20.89;45.50;101187.81;6157659;23;19909;-76
2022/05/11 09:23:34;;;;;;;;;;;;;;;20.89;45.60;101174.72;6157557;23;19909;-76
2022/05/11 09:26:01;;;;;;;;;;;;;;;20.87;45.51;101179.97;6157799;23;20245;-76
2022/05/11 09:28:31;;;;;;;;;;;;;;;20.89;45.60;101175.59;6157476;23;19909;-76
2022/05/11 09:30:56;;;;;;;;;;;;;;;20.91;45.56;101172.97;6157843;23;20004;-76
2022/05/11 09:33:23;;;;;;;;;;;;;;;20.91;45.57;101176.44;6158039;23;20373;-77
2022/05/11 09:35:49;;;;;;;;;;;;;;;20.90;45.49;101181.69;6158676;23;19916;-76
2022/05/11 09:38:17;;;;;;;;;;;;;;;20.91;45.49;101178.19;6158377;23;20325;-77
2022/05/11 09:40:56;;;;;;;;;;;;;;;20.89;45.63;101186.06;6131415;23;19912;-76
2022/05/11 09:43:36;;;;;;;;;;;;;;;20.87;45.76;101189.59;6157356;23;19908;-76
2022/05/11 09:46:19;;;;;;;;;;;;;;;20.85;45.79;101187.00;6131251;23;19908;-76
2022/05/11 09:48:55;;;;;;;;;;;;;;;20.86;45.61;101186.13;6131247;23;20288;-76
2022/05/11 09:51:22;;;;;;;;;;;;;;;20.86;45.59;101191.34;6131254;23;19916;-76
2022/05/11 09:53:53;;;;;;;;;;;;;;;20.87;45.65;101193.06;6157467;23;20344;-76
2022/05/11 09:56:26;;;;;;;;;;;;;;;20.87;45.67;101194.81;6131120;23;19909;-76
2022/05/11 09:58:51;;;;;;;;;;;;;;;20.87;45.69;101195.69;6131258;23;19915;-76
2022/05/11 10:01:22;;;;;;;;;;;;;;;20.86;45.60;101193.09;6157220;23;19940;-77
2022/05/11 10:04:04;;;;;;;;;;;;;;;20.86;45.85;101188.75;6157079;23;19917;-76
2022/05/11 10:06:32;;;;;;;;;;;;;;;20.88;45.65;101167.75;6156885;23;19913;-77
2022/05/11 10:08:58;;;;;;;;;;;;;;;20.89;45.68;101172.97;6131031;23;20314;-76
2022/05/11 10:11:50;;;;;;;;;;;;;;;20.89;45.58;101182.59;6131188;23;19991;-76
2022/05/11 10:22:49;;;;;;;;;;;;;;;20.89;45.80;101179.97;6134934;23;19923;-76
2022/05/11 10:25:25;;;;;;;;;;;;;;;20.88;45.80;101186.06;6155766;23;20241;-76
2022/05/11 10:28:05;;;;;;;;;;;;;;;20.88;45.80;101189.56;6157324;23;19983;-76
2022/05/11 10:30:46;;;;;;;;;;;;;;;20.87;45.60;101182.59;6130795;23;19909;-76
2022/05/11 10:33:32;;;;;;;;;;;;;;;20.87;45.71;101186.97;6157802;23;19924;-76
2022/05/11 10:36:05;;;;;;;;;;;;;;;20.85;45.68;101168.69;6127293;23;19913;-77
2022/05/11 10:38:33;;;;;;;;;;;;;;;20.85;45.72;101173.06;6156911;23;19924;-76
2022/05/11 10:41:10;;;;;;;;;;;;;;;20.83;45.80;101177.47;6130837;23;19916;-77
2022/05/11 10:43:38;;;;;;;;;;;;;;;20.83;45.77;101173.06;6130982;23;20241;-76
2022/05/11 10:46:08;;;;;;;;;;;;;;;20.83;45.78;101175.69;6157294;23;19909;-76
2022/05/11 10:48:57;;;;;;;;;;;;;;;20.82;45.94;101173.09;6157071;23;19959;-77
2022/05/11 10:51:26;;;;;;;;;;;;;;;20.82;45.63;101173.09;6148970;23;20281;-76
2022/05/11 10:54:14;;;;;;;;;;;;;;;20.81;45.46;101172.25;6130813;23;19935;-77
2022/05/11 10:56:58;;;;;;;;;;;;;;;20.82;45.83;101175.72;6156456;23;19913;-77
2022/05/11 10:59:44;;;;;;;;;;;;;;;20.81;45.76;101174.84;6157820;23;19944;-77
2022/05/11 11:02:28;;;;;;;;;;;;;;;20.80;45.73;101175.75;6131045;23;20273;-77
2022/05/11 11:05:02;;;;;;;;;;;;;;;20.80;45.53;101177.53;6156730;23;19916;-77
2022/05/11 11:07:30;;;;;;;;;;;;;;;20.80;45.70;101180.13;6157036;23;19939;-77
2022/05/11 11:09:59;;;;;;;;;;;;;;;20.81;45.73;101174.84;6130772;23;19915;-77
2022/05/11 11:12:48;;;;;;;;;;;;;;;20.81;45.69;101177.47;6156791;23;19916;-77
2022/05/11 11:15:14;;;;;;;;;;;;;;;20.81;45.70;101174.84;6130723;23;19908;-77
2022/05/11 11:17:42;;;;;;;;;;;;;;;20.81;45.55;101180.09;6156828;23;19912;-77
2022/05/11 11:20:08;;;;;;;;;;;;;;;20.82;45.74;101188.78;6156828;23;19909;-77
2022/05/11 11:22:54;;;;;;;;;;;;;;;20.80;45.52;101181.00;6106420;23;19943;-77
2022/05/11 11:25:20;;;;;;;;;;;;;;;20.80;45.48;101165.31;6130623;23;20070;-77
2022/05/11 11:28:09;;;;;;;;;;;;;;;20.81;45.60;101174.00;6130952;23;19979;-77
2022/05/11 11:30:35;;;;;;;;;;;;;;;20.81;45.38;101174.00;6156554;23;19967;-77
2022/05/11 11:33:13;;;;;;;;;;;;;;;20.81;45.38;101174.00;6157315;23;19991;-77
2022/05/11 11:35:39;;;;;;;;;;;;;;;20.82;45.39;101178.31;6132457;23;19908;-77
2022/05/11 11:38:05;;;;;;;;;;;;;;;20.82;45.33;101170.47;6158736;23;20321;-77
2022/05/11 11:40:32;;;;;;;;;;;;;;;20.82;45.27;101173.09;6108659;23;20286;-75
2022/05/11 11:42:58;;;;;;;;;;;;;;;20.81;45.08;101168.78;6109307;23;19937;-76
2022/05/11 11:45:24;;;;;;;;;;;;;;;20.81;45.21;101166.16;6158484;23;20352;-75
2022/05/11 11:48:00;;;;;;;;;;;;;;;20.82;45.15;101152.16;6158637;23;19913;-77
2022/05/11 11:50:43;;;;;;;;;;;;;;;20.82;45.06;101149.56;6158552;23;19916;-76
2022/05/11 11:53:11;;;;;;;;;;;;;;;20.83;44.96;101156.53;6132455;23;20043;-75
2022/05/11 11:55:37;;;;;;;;;;;;;;;20.83;44.92;101164.38;6132838;23;19915;-75
2022/05/11 11:58:21;;;;;;;;;;;;;;;20.83;44.77;101173.06;6158452;23;19909;-77
2022/05/11 12:00:46;;;;;;;;;;;;;;;20.83;44.71;101157.38;6158531;23;19908;-77
2022/05/11 12:03:32;;;;;;;;;;;;;;;20.84;44.75;101169.59;6132185;23;19917;-77
2022/05/11 12:15:01;;;;;;;;;;;;;;;20.84;44.74;101177.44;6132249;23;19913;-77
2022/05/11 12:17:01;;;;;;;;;;;;;;;20.87;44.46;101160.81;6158397;23;19939;-77
2022/05/11 12:19:28;;;;;;;;;;;;;;;20.87;44.40;101160.81;6158470;23;20325;-77
2022/05/11 12:22:19;;;;;;;;;;;;;;;20.87;44.52;101152.97;6158357;23;19915;-77
2022/05/11 12:24:46;;;;;;;;;;;;;;;20.88;44.47;101173.00;6129984;23;20314;-77
2022/05/11 12:27:21;;;;;;;;;;;;;;;20.89;44.42;101162.50;6158425;23;20237;-77
2022/05/11 12:29:59;;;;;;;;;;;;;;;20.89;44.41;101165.13;6132363;23;20213;-77
2022/05/11 12:32:33;;;;;;;;;;;;;;;20.90;44.58;101160.75;6158397;23;19909;-77
2022/05/11 12:35:06;;;;;;;;;;;;;;;20.90;44.45;101152.91;6158211;23;20241;-77
2022/05/11 12:37:32;;;;;;;;;;;;;;;20.91;44.64;101162.50;6157911;23;19987;-77
2022/05/11 12:40:05;;;;;;;;;;;;;;;20.91;44.49;101157.25;6131866;23;19908;-77
2022/05/11 12:42:33;;;;;;;;;;;;;;;20.91;44.44;101152.88;6131852;23;19916;-77
2022/05/11 12:44:59;;;;;;;;;;;;;;;20.92;44.31;101140.66;6157721;23;19995;-77
2022/05/11 12:47:25;;;;;;;;;;;;;;;20.94;44.29;101138.88;6131942;23;19932;-76
2022/05/11 12:49:50;;;;;;;;;;;;;;;20.94;44.37;101154.56;6131618;23;19948;-77
2022/05/11 12:52:16;;;;;;;;;;;;;;;20.95;44.13;101165.03;6157927;23;20003;-77
2022/05/11 12:54:54;;;;;;;;;;;;;;;20.95;44.41;101157.19;6131868;23;19955;-77
2022/05/11 12:57:19;;;;;;;;;;;;;;;20.96;44.43;101153.66;6157746;23;19917;-77
2022/05/11 12:59:48;;;;;;;;;;;;;;;20.99;44.37;101157.09;6131968;23;20322;-77
2022/05/11 13:02:16;;;;;;;;;;;;;;;20.97;44.26;101149.31;6132176;23;19995;-77
2022/05/11 13:05:07;;;;;;;;;;;;;;;20.98;44.12;101137.94;6157677;23;19975;-77
2022/05/11 13:07:33;;;;;;;;;;;;;;;20.98;44.21;101139.69;6129197;23;19917;-77
2022/05/11 13:09:59;;;;;;;;;;;;;;;20.96;43.79;101117.03;6158129;23;19916;-77
2022/05/11 13:12:25;;;;;;;;;;;;;;;20.96;44.05;101130.09;6157828;23;19909;-77
2022/05/11 13:14:55;;;;;;;;;;;;;;;20.97;44.15;101123.16;6131585;23;19947;-77
2022/05/11 13:17:25;;;;;;;;;;;;;;;20.97;43.96;101131.00;6158641;23;19931;-77
2022/05/11 13:19:52;;;;;;;;;;;;;;;20.96;43.92;101122.25;6157863;23;19963;-77